Overview Statistics Trail Chart Weather Telemetry Raw packets
 

This is the latest recevied weather packets stored in our database for station/object EA4HRG-10. If no packets are shown the sender has not sent any weather packets the latest 10 day(s).

<< 14 15 16 17 18 19 20 >>
Time Temp. Humidity Pressure Rain* Wind** Luminosity Snow
1788276338 38.33° C 18% 1010.6 hPa - - - -
1788275438 38.33° C 17% 1010.5 hPa - - - -
1788274538 38.89° C 18% 1010.3 hPa - - - -
1788273638 37.22° C 18% 1010.8 hPa - - - -
1788272738 38.33° C 17% 1010.5 hPa - - - -
1788271838 38.33° C 16% 1010.7 hPa - - - -
1788270938 37.78° C 17% 1011 hPa - - - -
1788270038 38.33° C 17% 1011.1 hPa - - - -
1788269138 37.22° C 19% 1011.4 hPa - - - -
1788268238 35.56° C 21% 1012 hPa - - - -
1788267349 37.22° C 19% 1011.5 hPa - - - -
1788266438 37.22° C 21% 1011.5 hPa - - - -
1788265538 37.22° C 21% 1011.8 hPa - - - -
1788264689 36.67° C 21% 1012 hPa - - - -
1788264638 36.67° C 21% 1012 hPa - - - -
1788263738 35.56° C 23% 1012.6 hPa - - - -
1788262838 32.78° C 29% 1013.6 hPa - - - -
1788261938 33.89° C 28% 1013.6 hPa - - - -
1788261038 32.78° C 30% 1013.9 hPa - - - -
1788260138 32.22° C 32% 1014.3 hPa - - - -
1788259238 31.67° C 34% 1014.7 hPa - - - -
1788258338 30° C 37% 1015.4 hPa - - - -
1788257438 30° C 38% 1015.6 hPa - - - -
1788256538 29.44° C 40% 1016 hPa - - - -
1788255638 29.44° C 42% 1016.1 hPa - - - -

* Rain since midnight (hover to see other rain measurements)
** Current wind speed in m/s (hover to see current wind gust speed)